sensor_id;sensor_type;location;lat;lon;timestamp;temperature;humidity
28654;DHT22;24320;56.980;24.336;2023-03-15T00:00:52;5.70;99.90
28654;DHT22;24320;56.980;24.336;2023-03-15T00:03:22;5.60;99.90
28654;DHT22;24320;56.980;24.336;2023-03-15T00:05:50;5.60;99.90
28654;DHT22;24320;56.980;24.336;2023-03-15T00:08:18;5.60;99.90
28654;DHT22;24320;56.980;24.336;2023-03-15T00:10:47;5.60;99.90
28654;DHT22;24320;56.980;24.336;2023-03-15T00:13:15;5.60;99.90
28654;DHT22;24320;56.980;24.336;2023-03-15T00:15:45;5.60;99.90
28654;DHT22;24320;56.980;24.336;2023-03-15T00:18:14;5.60;99.90
28654;DHT22;24320;56.980;24.336;2023-03-15T00:20:41;5.60;99.90
28654;DHT22;24320;56.980;24.336;2023-03-15T00:23:08;5.50;99.90
28654;DHT22;24320;56.980;24.336;2023-03-15T00:25:36;5.60;99.90
28654;DHT22;24320;56.980;24.336;2023-03-15T00:28:03;5.60;99.90
28654;DHT22;24320;56.980;24.336;2023-03-15T00:30:30;5.60;99.90
28654;DHT22;24320;56.980;24.336;2023-03-15T00:32:57;5.60;99.90
28654;DHT22;24320;56.980;24.336;2023-03-15T00:35:24;5.60;99.90
28654;DHT22;24320;56.980;24.336;2023-03-15T00:37:55;5.60;99.90
28654;DHT22;24320;56.980;24.336;2023-03-15T00:40:22;5.60;99.90
28654;DHT22;24320;56.980;24.336;2023-03-15T00:42:50;5.60;99.90
28654;DHT22;24320;56.980;24.336;2023-03-15T00:45:19;5.60;99.90
28654;DHT22;24320;56.980;24.336;2023-03-15T00:47:53;5.50;99.90
28654;DHT22;24320;56.980;24.336;2023-03-15T00:50:22;5.50;99.90
28654;DHT22;24320;56.980;24.336;2023-03-15T00:52:49;5.60;99.90
28654;DHT22;24320;56.980;24.336;2023-03-15T00:55:17;5.60;99.90
28654;DHT22;24320;56.980;24.336;2023-03-15T00:57:45;5.60;99.90
28654;DHT22;24320;56.980;24.336;2023-03-15T01:00:16;5.60;99.90
28654;DHT22;24320;56.980;24.336;2023-03-15T01:02:46;5.50;99.90
28654;DHT22;24320;56.980;24.336;2023-03-15T01:05:13;5.50;99.90
28654;DHT22;24320;56.980;24.336;2023-03-15T01:07:41;5.50;99.90
28654;DHT22;24320;56.980;24.336;2023-03-15T01:10:12;5.50;99.90
28654;DHT22;24320;56.980;24.336;2023-03-15T01:12:40;5.50;99.90
28654;DHT22;24320;56.980;24.336;2023-03-15T01:15:09;5.50;99.90
28654;DHT22;24320;56.980;24.336;2023-03-15T01:17:37;5.40;99.90
28654;DHT22;24320;56.980;24.336;2023-03-15T01:20:05;5.60;99.90
28654;DHT22;24320;56.980;24.336;2023-03-15T01:22:33;5.60;99.90
28654;DHT22;24320;56.980;24.336;2023-03-15T01:25:00;5.60;99.90
28654;DHT22;24320;56.980;24.336;2023-03-15T01:27:27;5.60;99.90
28654;DHT22;24320;56.980;24.336;2023-03-15T01:29:54;5.60;99.90
28654;DHT22;24320;56.980;24.336;2023-03-15T01:32:21;5.60;99.90
28654;DHT22;24320;56.980;24.336;2023-03-15T01:34:49;5.60;99.90
28654;DHT22;24320;56.980;24.336;2023-03-15T01:37:16;5.70;99.90
28654;DHT22;24320;56.980;24.336;2023-03-15T01:39:43;5.80;99.90
28654;DHT22;24320;56.980;24.336;2023-03-15T01:42:10;5.80;99.90
28654;DHT22;24320;56.980;24.336;2023-03-15T01:47:15;5.80;99.90
28654;DHT22;24320;56.980;24.336;2023-03-15T01:49:43;5.90;99.90
28654;DHT22;24320;56.980;24.336;2023-03-15T01:52:27;5.90;99.90
28654;DHT22;24320;56.980;24.336;2023-03-15T01:55:10;5.90;99.90
28654;DHT22;24320;56.980;24.336;2023-03-15T01:57:52;5.90;99.90
28654;DHT22;24320;56.980;24.336;2023-03-15T02:00:21;5.90;99.90
28654;DHT22;24320;56.980;24.336;2023-03-15T02:02:53;5.90;99.90
28654;DHT22;24320;56.980;24.336;2023-03-15T02:05:26;6.00;99.90
28654;DHT22;24320;56.980;24.336;2023-03-15T02:07:55;6.00;99.90
28654;DHT22;24320;56.980;24.336;2023-03-15T02:12:58;6.10;99.90
28654;DHT22;24320;56.980;24.336;2023-03-15T02:15:25;6.10;99.90
28654;DHT22;24320;56.980;24.336;2023-03-15T02:17:53;6.20;99.90
28654;DHT22;24320;56.980;24.336;2023-03-15T02:23:08;6.10;99.90
28654;DHT22;24320;56.980;24.336;2023-03-15T02:30:55;6.10;99.90
28654;DHT22;24320;56.980;24.336;2023-03-15T02:33:38;5.90;99.90
28654;DHT22;24320;56.980;24.336;2023-03-15T02:36:09;5.60;99.90
28654;DHT22;24320;56.980;24.336;2023-03-15T02:38:37;5.40;99.90
28654;DHT22;24320;56.980;24.336;2023-03-15T02:41:04;5.30;99.90
28654;DHT22;24320;56.980;24.336;2023-03-15T02:43:32;5.20;99.90
28654;DHT22;24320;56.980;24.336;2023-03-15T02:45:59;5.10;99.90
28654;DHT22;24320;56.980;24.336;2023-03-15T02:48:28;5.00;99.90
28654;DHT22;24320;56.980;24.336;2023-03-15T02:50:56;4.90;99.90
28654;DHT22;24320;56.980;24.336;2023-03-15T02:53:23;4.90;99.90
28654;DHT22;24320;56.980;24.336;2023-03-15T02:55:50;4.80;99.90
28654;DHT22;24320;56.980;24.336;2023-03-15T02:58:17;4.80;99.90
28654;DHT22;24320;56.980;24.336;2023-03-15T03:00:44;4.70;99.90
28654;DHT22;24320;56.980;24.336;2023-03-15T03:03:11;4.60;99.90
28654;DHT22;24320;56.980;24.336;2023-03-15T03:05:38;4.60;99.90
28654;DHT22;24320;56.980;24.336;2023-03-15T03:08:05;4.60;99.90
28654;DHT22;24320;56.980;24.336;2023-03-15T03:10:32;4.50;99.90
28654;DHT22;24320;56.980;24.336;2023-03-15T03:12:59;4.50;99.90
28654;DHT22;24320;56.980;24.336;2023-03-15T03:15:26;4.40;99.90
28654;DHT22;24320;56.980;24.336;2023-03-15T03:17:53;4.40;99.90
28654;DHT22;24320;56.980;24.336;2023-03-15T03:20:20;4.30;99.90
28654;DHT22;24320;56.980;24.336;2023-03-15T03:22:47;4.30;99.90
28654;DHT22;24320;56.980;24.336;2023-03-15T03:25:14;4.20;99.90
28654;DHT22;24320;56.980;24.336;2023-03-15T03:27:41;4.20;99.90
28654;DHT22;24320;56.980;24.336;2023-03-15T03:30:10;4.10;99.90
28654;DHT22;24320;56.980;24.336;2023-03-15T03:32:39;4.10;99.90
28654;DHT22;24320;56.980;24.336;2023-03-15T03:35:07;4.10;99.90
28654;DHT22;24320;56.980;24.336;2023-03-15T03:37:34;4.10;99.90
28654;DHT22;24320;56.980;24.336;2023-03-15T03:40:01;4.10;99.90
28654;DHT22;24320;56.980;24.336;2023-03-15T03:42:34;4.00;99.90
28654;DHT22;24320;56.980;24.336;2023-03-15T03:45:01;4.00;99.90
28654;DHT22;24320;56.980;24.336;2023-03-15T03:47:28;4.00;99.90
28654;DHT22;24320;56.980;24.336;2023-03-15T03:49:55;4.00;99.90
28654;DHT22;24320;56.980;24.336;2023-03-15T03:54:58;4.00;99.90
28654;DHT22;24320;56.980;24.336;2023-03-15T03:57:25;4.00;99.90
28654;DHT22;24320;56.980;24.336;2023-03-15T03:59:52;4.00;99.90
28654;DHT22;24320;56.980;24.336;2023-03-15T04:02:19;3.90;99.90
28654;DHT22;24320;56.980;24.336;2023-03-15T04:04:46;3.90;99.90
28654;DHT22;24320;56.980;24.336;2023-03-15T04:07:16;3.90;99.90
28654;DHT22;24320;56.980;24.336;2023-03-15T04:09:43;3.90;99.90
28654;DHT22;24320;56.980;24.336;2023-03-15T04:12:10;3.90;99.90
28654;DHT22;24320;56.980;24.336;2023-03-15T04:14:37;3.80;99.90
28654;DHT22;24320;56.980;24.336;2023-03-15T04:17:04;3.80;99.90
28654;DHT22;24320;56.980;24.336;2023-03-15T04:19:31;3.80;99.90
28654;DHT22;24320;56.980;24.336;2023-03-15T04:21:59;3.80;99.90
28654;DHT22;24320;56.980;24.336;2023-03-15T04:24:35;3.80;99.90
28654;DHT22;24320;56.980;24.336;2023-03-15T04:27:02;3.80;99.90
28654;DHT22;24320;56.980;24.336;2023-03-15T04:29:31;3.80;99.90
28654;DHT22;24320;56.980;24.336;2023-03-15T04:31:58;3.80;99.90
28654;DHT22;24320;56.980;24.336;2023-03-15T04:34:30;3.80;99.90
28654;DHT22;24320;56.980;24.336;2023-03-15T04:36:57;3.80;99.90
28654;DHT22;24320;56.980;24.336;2023-03-15T04:39:24;3.80;99.90
28654;DHT22;24320;56.980;24.336;2023-03-15T04:41:51;3.80;99.90
28654;DHT22;24320;56.980;24.336;2023-03-15T04:44:20;3.80;99.90
28654;DHT22;24320;56.980;24.336;2023-03-15T04:46:47;3.70;99.90
28654;DHT22;24320;56.980;24.336;2023-03-15T04:49:14;3.70;99.90
28654;DHT22;24320;56.980;24.336;2023-03-15T04:51:41;3.70;99.90
28654;DHT22;24320;56.980;24.336;2023-03-15T04:54:08;3.70;99.90
28654;DHT22;24320;56.980;24.336;2023-03-15T04:56:35;3.70;99.90
28654;DHT22;24320;56.980;24.336;2023-03-15T04:59:03;3.70;99.90
28654;DHT22;24320;56.980;24.336;2023-03-15T05:01:30;3.70;99.90
28654;DHT22;24320;56.980;24.336;2023-03-15T05:03:58;3.70;99.90
28654;DHT22;24320;56.980;24.336;2023-03-15T05:06:25;3.70;99.90
28654;DHT22;24320;56.980;24.336;2023-03-15T05:08:52;3.60;99.90
28654;DHT22;24320;56.980;24.336;2023-03-15T05:11:20;3.60;99.90
28654;DHT22;24320;56.980;24.336;2023-03-15T05:13:47;3.60;99.90
28654;DHT22;24320;56.980;24.336;2023-03-15T05:16:14;3.60;99.90
28654;DHT22;24320;56.980;24.336;2023-03-15T05:18:41;3.70;99.90
28654;DHT22;24320;56.980;24.336;2023-03-15T05:21:11;3.70;99.90
28654;DHT22;24320;56.980;24.336;2023-03-15T05:23:39;3.70;99.90
28654;DHT22;24320;56.980;24.336;2023-03-15T05:26:06;3.60;99.90
28654;DHT22;24320;56.980;24.336;2023-03-15T05:28:33;3.60;99.90
28654;DHT22;24320;56.980;24.336;2023-03-15T05:31:00;3.60;99.90
28654;DHT22;24320;56.980;24.336;2023-03-15T05:33:28;3.60;99.90
28654;DHT22;24320;56.980;24.336;2023-03-15T05:35:55;3.60;99.90
28654;DHT22;24320;56.980;24.336;2023-03-15T05:38:22;3.60;99.90
28654;DHT22;24320;56.980;24.336;2023-03-15T05:40:53;3.60;99.90
28654;DHT22;24320;56.980;24.336;2023-03-15T05:43:20;3.60;99.90
28654;DHT22;24320;56.980;24.336;2023-03-15T05:45:47;3.60;99.90
28654;DHT22;24320;56.980;24.336;2023-03-15T05:48:15;3.60;99.90
28654;DHT22;24320;56.980;24.336;2023-03-15T05:50:42;3.60;99.90
28654;DHT22;24320;56.980;24.336;2023-03-15T05:53:10;3.60;99.90
28654;DHT22;24320;56.980;24.336;2023-03-15T05:55:37;3.60;99.90
28654;DHT22;24320;56.980;24.336;2023-03-15T05:58:05;3.60;99.90
28654;DHT22;24320;56.980;24.336;2023-03-15T06:00:32;3.60;99.90
28654;DHT22;24320;56.980;24.336;2023-03-15T06:02:59;3.60;99.90
28654;DHT22;24320;56.980;24.336;2023-03-15T06:05:26;3.60;99.90
28654;DHT22;24320;56.980;24.336;2023-03-15T06:07:53;3.60;99.90
28654;DHT22;24320;56.980;24.336;2023-03-15T06:10:21;3.60;99.90
28654;DHT22;24320;56.980;24.336;2023-03-15T06:12:48;3.50;99.90
28654;DHT22;24320;56.980;24.336;2023-03-15T06:15:16;3.60;99.90
28654;DHT22;24320;56.980;24.336;2023-03-15T06:17:44;3.60;99.90
28654;DHT22;24320;56.980;24.336;2023-03-15T06:20:11;3.60;99.90
28654;DHT22;24320;56.980;24.336;2023-03-15T06:22:38;3.60;99.90
28654;DHT22;24320;56.980;24.336;2023-03-15T06:25:06;3.60;99.90
28654;DHT22;24320;56.980;24.336;2023-03-15T06:27:33;3.60;99.90
28654;DHT22;24320;56.980;24.336;2023-03-15T06:30:00;3.60;99.90
28654;DHT22;24320;56.980;24.336;2023-03-15T06:32:27;3.60;99.90
28654;DHT22;24320;56.980;24.336;2023-03-15T06:34:54;3.60;99.90
28654;DHT22;24320;56.980;24.336;2023-03-15T06:37:21;3.70;99.90
28654;DHT22;24320;56.980;24.336;2023-03-15T06:40:05;3.70;99.90
28654;DHT22;24320;56.980;24.336;2023-03-15T06:42:35;3.70;99.90
28654;DHT22;24320;56.980;24.336;2023-03-15T06:45:03;3.80;99.90
28654;DHT22;24320;56.980;24.336;2023-03-15T06:47:31;3.90;99.90
28654;DHT22;24320;56.980;24.336;2023-03-15T06:49:58;4.00;99.90
28654;DHT22;24320;56.980;24.336;2023-03-15T06:52:25;4.20;99.90
28654;DHT22;24320;56.980;24.336;2023-03-15T06:54:52;4.30;99.90
28654;DHT22;24320;56.980;24.336;2023-03-15T06:57:19;4.40;99.90
28654;DHT22;24320;56.980;24.336;2023-03-15T06:59:46;4.50;99.90
28654;DHT22;24320;56.980;24.336;2023-03-15T07:02:15;4.70;99.90
28654;DHT22;24320;56.980;24.336;2023-03-15T07:04:43;4.90;99.90
28654;DHT22;24320;56.980;24.336;2023-03-15T07:07:13;5.00;99.90
28654;DHT22;24320;56.980;24.336;2023-03-15T07:09:41;5.10;99.90
28654;DHT22;24320;56.980;24.336;2023-03-15T07:12:09;5.20;99.90
28654;DHT22;24320;56.980;24.336;2023-03-15T07:14:37;5.20;99.90
28654;DHT22;24320;56.980;24.336;2023-03-15T07:17:04;5.30;99.90
28654;DHT22;24320;56.980;24.336;2023-03-15T07:19:31;5.10;99.90
28654;DHT22;24320;56.980;24.336;2023-03-15T07:21:58;4.90;99.90
28654;DHT22;24320;56.980;24.336;2023-03-15T07:24:25;4.60;99.90
28654;DHT22;24320;56.980;24.336;2023-03-15T07:26:53;4.50;99.90
28654;DHT22;24320;56.980;24.336;2023-03-15T07:29:23;4.50;99.90
28654;DHT22;24320;56.980;24.336;2023-03-15T07:31:50;4.40;99.90
28654;DHT22;24320;56.980;24.336;2023-03-15T07:34:17;4.30;99.90
28654;DHT22;24320;56.980;24.336;2023-03-15T07:36:44;4.30;99.90
28654;DHT22;24320;56.980;24.336;2023-03-15T07:39:11;4.50;99.90
28654;DHT22;24320;56.980;24.336;2023-03-15T07:41:38;4.70;99.90
28654;DHT22;24320;56.980;24.336;2023-03-15T07:44:05;4.80;99.90
28654;DHT22;24320;56.980;24.336;2023-03-15T07:46:32;4.90;99.90
28654;DHT22;24320;56.980;24.336;2023-03-15T07:48:59;4.90;99.90
28654;DHT22;24320;56.980;24.336;2023-03-15T07:51:26;4.90;99.90
28654;DHT22;24320;56.980;24.336;2023-03-15T07:53:53;4.80;99.90
28654;DHT22;24320;56.980;24.336;2023-03-15T07:56:20;4.80;99.90
28654;DHT22;24320;56.980;24.336;2023-03-15T07:58:47;4.70;99.90
28654;DHT22;24320;56.980;24.336;2023-03-15T08:01:15;4.70;99.90
28654;DHT22;24320;56.980;24.336;2023-03-15T08:03:42;4.60;99.90
28654;DHT22;24320;56.980;24.336;2023-03-15T08:06:09;4.50;99.90
28654;DHT22;24320;56.980;24.336;2023-03-15T08:08:36;4.40;99.90
28654;DHT22;24320;56.980;24.336;2023-03-15T08:11:04;4.30;99.90
28654;DHT22;24320;56.980;24.336;2023-03-15T08:13:31;4.30;99.90
28654;DHT22;24320;56.980;24.336;2023-03-15T08:15:58;4.30;99.90
28654;DHT22;24320;56.980;24.336;2023-03-15T08:18:25;4.20;99.90
28654;DHT22;24320;56.980;24.336;2023-03-15T08:20:55;4.20;99.90
28654;DHT22;24320;56.980;24.336;2023-03-15T08:23:22;4.30;99.90
28654;DHT22;24320;56.980;24.336;2023-03-15T08:25:49;4.50;99.90
28654;DHT22;24320;56.980;24.336;2023-03-15T08:28:16;4.80;99.90
28654;DHT22;24320;56.980;24.336;2023-03-15T08:30:43;5.10;99.90
28654;DHT22;24320;56.980;24.336;2023-03-15T08:33:10;5.30;99.90
28654;DHT22;24320;56.980;24.336;2023-03-15T08:35:38;5.20;99.90
28654;DHT22;24320;56.980;24.336;2023-03-15T08:38:08;5.10;99.90
28654;DHT22;24320;56.980;24.336;2023-03-15T08:40:35;5.20;99.90
28654;DHT22;24320;56.980;24.336;2023-03-15T08:43:05;5.10;99.90
28654;DHT22;24320;56.980;24.336;2023-03-15T08:45:32;5.10;99.90
28654;DHT22;24320;56.980;24.336;2023-03-15T08:48:18;5.10;99.90
28654;DHT22;24320;56.980;24.336;2023-03-15T08:50:46;5.10;99.90
28654;DHT22;24320;56.980;24.336;2023-03-15T08:53:13;5.10;99.90
28654;DHT22;24320;56.980;24.336;2023-03-15T08:55:40;5.00;99.90
28654;DHT22;24320;56.980;24.336;2023-03-15T08:58:07;5.00;99.90
28654;DHT22;24320;56.980;24.336;2023-03-15T09:00:34;4.90;99.90
28654;DHT22;24320;56.980;24.336;2023-03-15T09:03:01;4.90;99.90
28654;DHT22;24320;56.980;24.336;2023-03-15T09:05:28;4.80;99.90
28654;DHT22;24320;56.980;24.336;2023-03-15T09:07:55;4.80;99.90
28654;DHT22;24320;56.980;24.336;2023-03-15T09:10:22;4.80;99.90
28654;DHT22;24320;56.980;24.336;2023-03-15T09:12:50;4.80;99.90
28654;DHT22;24320;56.980;24.336;2023-03-15T09:15:19;4.90;99.90
28654;DHT22;24320;56.980;24.336;2023-03-15T09:17:48;5.00;99.90
28654;DHT22;24320;56.980;24.336;2023-03-15T09:20:17;5.00;99.90
28654;DHT22;24320;56.980;24.336;2023-03-15T09:22:56;5.00;99.90
28654;DHT22;24320;56.980;24.336;2023-03-15T09:25:24;5.00;99.90
28654;DHT22;24320;56.980;24.336;2023-03-15T09:27:51;5.10;99.90
28654;DHT22;24320;56.980;24.336;2023-03-15T09:30:19;5.40;99.90
28654;DHT22;24320;56.980;24.336;2023-03-15T09:32:46;5.60;99.90
28654;DHT22;24320;56.980;24.336;2023-03-15T09:35:15;5.50;99.90
28654;DHT22;24320;56.980;24.336;2023-03-15T09:37:43;5.30;99.90
28654;DHT22;24320;56.980;24.336;2023-03-15T09:40:23;5.20;99.90
28654;DHT22;24320;56.980;24.336;2023-03-15T09:48:33;5.10;99.90
28654;DHT22;24320;56.980;24.336;2023-03-15T09:56:22;5.40;99.90
28654;DHT22;24320;56.980;24.336;2023-03-15T09:58:54;5.40;99.90
28654;DHT22;24320;56.980;24.336;2023-03-15T10:01:28;5.40;99.90
28654;DHT22;24320;56.980;24.336;2023-03-15T10:03:55;5.40;99.90
28654;DHT22;24320;56.980;24.336;2023-03-15T10:06:29;5.60;99.90
28654;DHT22;24320;56.980;24.336;2023-03-15T10:09:10;5.70;99.90
28654;DHT22;24320;56.980;24.336;2023-03-15T10:14:24;5.80;99.90
28654;DHT22;24320;56.980;24.336;2023-03-15T10:16:53;5.90;99.90
28654;DHT22;24320;56.980;24.336;2023-03-15T10:24:49;6.50;99.90
28654;DHT22;24320;56.980;24.336;2023-03-15T10:27:30;6.90;99.90
28654;DHT22;24320;56.980;24.336;2023-03-15T10:29:59;6.90;99.90
28654;DHT22;24320;56.980;24.336;2023-03-15T10:32:37;7.00;99.90
28654;DHT22;24320;56.980;24.336;2023-03-15T10:35:16;7.00;99.90
28654;DHT22;24320;56.980;24.336;2023-03-15T10:37:43;7.00;99.90
28654;DHT22;24320;56.980;24.336;2023-03-15T10:40:12;6.80;99.90
28654;DHT22;24320;56.980;24.336;2023-03-15T10:42:43;6.50;99.90
28654;DHT22;24320;56.980;24.336;2023-03-15T10:45:28;6.30;99.90
28654;DHT22;24320;56.980;24.336;2023-03-15T10:47:55;6.10;99.90
28654;DHT22;24320;56.980;24.336;2023-03-15T10:50:31;6.00;99.90
28654;DHT22;24320;56.980;24.336;2023-03-15T10:53:01;5.90;99.90
28654;DHT22;24320;56.980;24.336;2023-03-15T10:55:43;5.80;99.90
28654;DHT22;24320;56.980;24.336;2023-03-15T11:00:52;6.00;99.90
28654;DHT22;24320;56.980;24.336;2023-03-15T11:03:21;6.00;99.90
28654;DHT22;24320;56.980;24.336;2023-03-15T11:05:51;6.10;99.90
28654;DHT22;24320;56.980;24.336;2023-03-15T11:08:24;6.30;99.90
28654;DHT22;24320;56.980;24.336;2023-03-15T11:11:00;6.30;99.90
28654;DHT22;24320;56.980;24.336;2023-03-15T11:13:35;6.30;99.90
28654;DHT22;24320;56.980;24.336;2023-03-15T11:16:17;6.40;99.90
28654;DHT22;24320;56.980;24.336;2023-03-15T11:18:59;6.60;99.90
28654;DHT22;24320;56.980;24.336;2023-03-15T11:21:30;6.60;99.90
28654;DHT22;24320;56.980;24.336;2023-03-15T11:24:02;6.70;99.90
28654;DHT22;24320;56.980;24.336;2023-03-15T11:26:38;6.70;99.90
28654;DHT22;24320;56.980;24.336;2023-03-15T11:29:22;6.90;99.90
28654;DHT22;24320;56.980;24.336;2023-03-15T11:31:51;7.10;99.90
28654;DHT22;24320;56.980;24.336;2023-03-15T11:34:41;7.40;99.90
28654;DHT22;24320;56.980;24.336;2023-03-15T11:37:21;7.60;99.90
28654;DHT22;24320;56.980;24.336;2023-03-15T11:40:17;7.70;99.90
28654;DHT22;24320;56.980;24.336;2023-03-15T11:43:21;7.70;99.90
28654;DHT22;24320;56.980;24.336;2023-03-15T11:48:28;7.30;99.90
28654;DHT22;24320;56.980;24.336;2023-03-15T11:50:56;7.20;99.90
28654;DHT22;24320;56.980;24.336;2023-03-15T11:53:29;7.10;99.90
28654;DHT22;24320;56.980;24.336;2023-03-15T11:56:43;7.10;99.90
28654;DHT22;24320;56.980;24.336;2023-03-15T11:59:17;7.30;99.90
28654;DHT22;24320;56.980;24.336;2023-03-15T12:04:45;7.90;99.90
28654;DHT22;24320;56.980;24.336;2023-03-15T12:17:44;7.70;99.90
28654;DHT22;24320;56.980;24.336;2023-03-15T12:25:34;7.80;99.90
28654;DHT22;24320;56.980;24.336;2023-03-15T12:28:30;7.80;99.90
28654;DHT22;24320;56.980;24.336;2023-03-15T12:31:01;7.60;99.90
28654;DHT22;24320;56.980;24.336;2023-03-15T12:33:31;7.50;99.90
28654;DHT22;24320;56.980;24.336;2023-03-15T12:36:03;7.40;99.90
28654;DHT22;24320;56.980;24.336;2023-03-15T12:38:38;7.40;99.90
28654;DHT22;24320;56.980;24.336;2023-03-15T12:41:32;7.70;99.90
28654;DHT22;24320;56.980;24.336;2023-03-15T12:44:22;7.80;99.90
28654;DHT22;24320;56.980;24.336;2023-03-15T12:55:00;8.20;99.90
28654;DHT22;24320;56.980;24.336;2023-03-15T12:57:38;8.10;99.90
28654;DHT22;24320;56.980;24.336;2023-03-15T13:00:15;8.00;99.90
28654;DHT22;24320;56.980;24.336;2023-03-15T13:03:01;7.90;99.90
28654;DHT22;24320;56.980;24.336;2023-03-15T13:05:32;7.70;99.90
28654;DHT22;24320;56.980;24.336;2023-03-15T13:11:05;7.60;99.90
28654;DHT22;24320;56.980;24.336;2023-03-15T13:22:04;7.00;99.90
28654;DHT22;24320;56.980;24.336;2023-03-15T13:24:50;7.10;99.90
28654;DHT22;24320;56.980;24.336;2023-03-15T13:30:37;7.80;99.90
28654;DHT22;24320;56.980;24.336;2023-03-15T13:33:25;7.80;99.30
28654;DHT22;24320;56.980;24.336;2023-03-15T13:35:54;7.70;99.10
28654;DHT22;24320;56.980;24.336;2023-03-15T13:38:27;7.60;99.90
28654;DHT22;24320;56.980;24.336;2023-03-15T13:43:37;7.10;99.90
28654;DHT22;24320;56.980;24.336;2023-03-15T13:46:05;7.00;99.90
28654;DHT22;24320;56.980;24.336;2023-03-15T13:48:34;6.90;99.90
28654;DHT22;24320;56.980;24.336;2023-03-15T13:51:26;6.90;99.90
28654;DHT22;24320;56.980;24.336;2023-03-15T13:54:05;6.90;99.90
28654;DHT22;24320;56.980;24.336;2023-03-15T13:56:34;7.00;99.90
28654;DHT22;24320;56.980;24.336;2023-03-15T13:59:16;6.90;99.90
28654;DHT22;24320;56.980;24.336;2023-03-15T14:01:43;6.90;99.90
28654;DHT22;24320;56.980;24.336;2023-03-15T14:04:15;7.00;99.90
28654;DHT22;24320;56.980;24.336;2023-03-15T14:06:43;7.10;99.90
28654;DHT22;24320;56.980;24.336;2023-03-15T14:09:29;7.20;99.20
28654;DHT22;24320;56.980;24.336;2023-03-15T14:12:05;7.20;99.20
28654;DHT22;24320;56.980;24.336;2023-03-15T14:14:37;7.20;99.30
28654;DHT22;24320;56.980;24.336;2023-03-15T14:17:37;7.20;99.60
28654;DHT22;24320;56.980;24.336;2023-03-15T14:20:16;7.00;99.90
28654;DHT22;24320;56.980;24.336;2023-03-15T14:22:43;6.90;99.60
28654;DHT22;24320;56.980;24.336;2023-03-15T14:25:21;6.80;99.90
28654;DHT22;24320;56.980;24.336;2023-03-15T14:27:48;6.70;99.30
28654;DHT22;24320;56.980;24.336;2023-03-15T14:30:20;6.70;99.50
28654;DHT22;24320;56.980;24.336;2023-03-15T14:32:53;6.50;99.60
28654;DHT22;24320;56.980;24.336;2023-03-15T14:40:46;6.20;99.90
28654;DHT22;24320;56.980;24.336;2023-03-15T14:43:13;6.10;99.90
28654;DHT22;24320;56.980;24.336;2023-03-15T14:45:42;6.10;99.90
28654;DHT22;24320;56.980;24.336;2023-03-15T14:48:27;6.00;99.90
28654;DHT22;24320;56.980;24.336;2023-03-15T14:50:55;6.00;99.90
28654;DHT22;24320;56.980;24.336;2023-03-15T14:53:23;6.10;99.90
28654;DHT22;24320;56.980;24.336;2023-03-15T14:55:51;6.10;99.90
28654;DHT22;24320;56.980;24.336;2023-03-15T14:58:20;6.00;99.90
28654;DHT22;24320;56.980;24.336;2023-03-15T15:00:50;6.00;99.90
28654;DHT22;24320;56.980;24.336;2023-03-15T15:03:25;6.00;99.90
28654;DHT22;24320;56.980;24.336;2023-03-15T15:05:55;5.90;99.90
28654;DHT22;24320;56.980;24.336;2023-03-15T15:08:22;5.90;99.90
28654;DHT22;24320;56.980;24.336;2023-03-15T15:10:55;5.90;99.90
28654;DHT22;24320;56.980;24.336;2023-03-15T15:13:27;5.90;99.90
28654;DHT22;24320;56.980;24.336;2023-03-15T15:15:55;5.90;99.90
28654;DHT22;24320;56.980;24.336;2023-03-15T15:18:24;5.90;99.90
28654;DHT22;24320;56.980;24.336;2023-03-15T15:20:52;5.90;99.90
28654;DHT22;24320;56.980;24.336;2023-03-15T15:23:27;5.80;99.90
28654;DHT22;24320;56.980;24.336;2023-03-15T15:25:59;5.70;99.90
28654;DHT22;24320;56.980;24.336;2023-03-15T15:28:29;5.60;99.90
28654;DHT22;24320;56.980;24.336;2023-03-15T15:31:04;5.50;99.90
28654;DHT22;24320;56.980;24.336;2023-03-15T15:33:31;5.40;99.90
28654;DHT22;24320;56.980;24.336;2023-03-15T15:35:59;5.30;99.90
28654;DHT22;24320;56.980;24.336;2023-03-15T15:38:30;5.20;99.90
28654;DHT22;24320;56.980;24.336;2023-03-15T15:41:10;5.20;99.90
28654;DHT22;24320;56.980;24.336;2023-03-15T15:43:44;5.10;99.90
28654;DHT22;24320;56.980;24.336;2023-03-15T15:46:11;5.00;99.90
28654;DHT22;24320;56.980;24.336;2023-03-15T15:48:38;4.90;99.50
28654;DHT22;24320;56.980;24.336;2023-03-15T15:51:30;4.90;99.90
28654;DHT22;24320;56.980;24.336;2023-03-15T15:53:59;4.90;99.30
28654;DHT22;24320;56.980;24.336;2023-03-15T15:56:37;4.80;99.40
28654;DHT22;24320;56.980;24.336;2023-03-15T15:59:12;4.80;99.10
28654;DHT22;24320;56.980;24.336;2023-03-15T16:01:41;4.80;99.90
28654;DHT22;24320;56.980;24.336;2023-03-15T16:04:25;4.70;99.10
28654;DHT22;24320;56.980;24.336;2023-03-15T16:07:00;4.60;99.90
28654;DHT22;24320;56.980;24.336;2023-03-15T16:09:30;4.50;99.70
28654;DHT22;24320;56.980;24.336;2023-03-15T16:12:01;4.40;99.80
28654;DHT22;24320;56.980;24.336;2023-03-15T16:14:28;4.40;99.20
28654;DHT22;24320;56.980;24.336;2023-03-15T16:16:58;4.40;99.30
28654;DHT22;24320;56.980;24.336;2023-03-15T16:19:25;4.40;99.90
28654;DHT22;24320;56.980;24.336;2023-03-15T16:21:52;4.30;99.90
28654;DHT22;24320;56.980;24.336;2023-03-15T16:24:25;4.20;99.90
28654;DHT22;24320;56.980;24.336;2023-03-15T16:27:00;4.10;99.90
28654;DHT22;24320;56.980;24.336;2023-03-15T16:29:39;4.00;99.90
28654;DHT22;24320;56.980;24.336;2023-03-15T16:32:13;3.80;99.90
28654;DHT22;24320;56.980;24.336;2023-03-15T16:34:51;3.90;99.90
28654;DHT22;24320;56.980;24.336;2023-03-15T16:37:23;4.00;99.90
28654;DHT22;24320;56.980;24.336;2023-03-15T16:39:52;4.00;99.90
28654;DHT22;24320;56.980;24.336;2023-03-15T16:42:21;4.00;99.90
28654;DHT22;24320;56.980;24.336;2023-03-15T16:44:52;4.00;99.90
28654;DHT22;24320;56.980;24.336;2023-03-15T16:47:19;3.90;99.90
28654;DHT22;24320;56.980;24.336;2023-03-15T16:49:46;3.90;99.90
28654;DHT22;24320;56.980;24.336;2023-03-15T16:52:14;3.90;99.90
28654;DHT22;24320;56.980;24.336;2023-03-15T16:54:42;3.80;99.90
28654;DHT22;24320;56.980;24.336;2023-03-15T16:57:21;3.70;99.90
28654;DHT22;24320;56.980;24.336;2023-03-15T16:59:49;3.70;99.90
28654;DHT22;24320;56.980;24.336;2023-03-15T17:02:22;3.70;99.90
28654;DHT22;24320;56.980;24.336;2023-03-15T17:04:50;3.70;99.90
28654;DHT22;24320;56.980;24.336;2023-03-15T17:07:23;3.60;99.90
28654;DHT22;24320;56.980;24.336;2023-03-15T17:09:53;3.60;99.90
28654;DHT22;24320;56.980;24.336;2023-03-15T17:12:23;3.60;99.90
28654;DHT22;24320;56.980;24.336;2023-03-15T17:14:51;3.50;99.90
28654;DHT22;24320;56.980;24.336;2023-03-15T17:17:19;3.50;99.90
28654;DHT22;24320;56.980;24.336;2023-03-15T17:19:46;3.40;99.90